Terminal Aerodrome Forecast
Issued by NWS Albany, NY

Home | Current Version | Previous Version | Text Only | Print | Product List | Glossary On
Versions: 1 2 3 4 5 6 7 8 9 10 11 12 13 14 15 16 17 18 19 20 21 22 23 24 25 26 27
000
FTUS41 KALY 310500 RRA
TAFGFL
TAF
KGFL 310541Z 3106/0106 VRB03KT P6SM SCT050 BKN090
     FM311400 19005KT P6SM BKN050 BKN090
     FM311600 21008KT P6SM BKN040 OVC080
      TEMPO 3116/3119 3SM TSRA BR BKN025CB OVC040
     FM312100 21006KT P6SM SCT050 SCT100
     FM010000 VRB03KT P6SM SCT050=

USA.gov is the U.S. government's official web portal to all federal, state and local government web resources and services.